Terminal Aerodrome Forecast
Issued by NWS Jacksonville, FL

Home | Current Version | Previous Version | Text Only | Print | Product List | Glossary On
Versions: 1 2 3 4 5 6 7 8 9 10 11 12 13 14 15 16 17 18 19 20 21 22
000
FTUS42 KJAX 311720
TAFSSI
TAF
KSSI 311720Z 3118/0118 22008KT P6SM VCSH BKN035
     FM312000 16008KT P6SM VCTS BKN040CB
      TEMPO 3120/3123 VRB20G30KT 2SM TSRA BKN020CB
     FM010000 21007KT P6SM SCT050 BKN250
     FM010900 21005KT P6SM BKN005
     FM011300 23008KT P6SM SCT030=

USA.gov is the U.S. government's official web portal to all federal, state and local government web resources and services.